createdAt,value
2023-01-19T02:41:51.602Z,5.53
2023-01-19T02:44:19.225Z,4.67
2023-01-19T02:46:46.447Z,3.88
2023-01-19T02:51:50.525Z,4.85
2023-01-19T02:54:28.829Z,6.40
2023-01-19T02:57:04.570Z,6.75
2023-01-19T02:59:42.757Z,5.13
2023-01-19T03:02:18.566Z,5.20
2023-01-19T03:05:05.959Z,6.75
2023-01-19T03:10:41.663Z,5.88
2023-01-19T03:13:12.154Z,10.07
2023-01-19T03:15:41.349Z,10.85
2023-01-19T03:18:10.206Z,8.70
2023-01-19T03:20:38.384Z,12.00
2023-01-19T03:23:25.668Z,19.70
2023-01-19T03:25:53.774Z,14.63
2023-01-19T03:28:23.701Z,9.60
2023-01-19T03:30:53.757Z,10.52
2023-01-19T03:40:05.580Z,11.50
2023-01-19T03:42:33.252Z,16.83
2023-01-19T03:45:02.436Z,15.57
2023-01-19T03:47:29.751Z,19.02
2023-01-19T03:49:57.726Z,15.43
2023-01-19T03:55:42.947Z,15.98
2023-01-19T03:58:10.328Z,14.60
2023-01-19T04:00:39.636Z,14.43
2023-01-19T04:03:16.682Z,13.18
2023-01-19T04:05:57.192Z,15.40
2023-01-19T04:08:33.839Z,15.70
2023-01-19T04:11:01.149Z,18.35
2023-01-19T04:13:28.464Z,14.65
2023-01-19T04:15:59.682Z,21.60
2023-01-19T04:18:26.981Z,16.20
2023-01-19T04:20:54.207Z,17.03
2023-01-19T04:23:27.345Z,13.52
2023-01-19T04:25:57.705Z,17.52
2023-01-19T04:28:25.266Z,22.30
2023-01-19T04:30:52.728Z,15.95
2023-01-19T04:33:38.867Z,13.93
2023-01-19T04:36:39.353Z,17.17
2023-01-19T04:39:08.272Z,16.67
2023-01-19T04:41:35.617Z,18.33
2023-01-19T04:44:02.899Z,15.77
2023-01-19T04:46:31.014Z,16.48
2023-01-19T04:48:58.327Z,17.73
2023-01-19T04:51:25.662Z,21.95
2023-01-19T04:53:57.886Z,26.13
2023-01-19T04:56:26.486Z,20.52
2023-01-19T04:58:53.731Z,18.80
2023-01-19T05:01:21.037Z,16.80
2023-01-19T05:03:48.998Z,16.58
2023-01-19T05:06:20.348Z,14.43
2023-01-19T05:08:47.954Z,17.00
2023-01-19T05:11:15.254Z,14.50
2023-01-19T05:13:43.821Z,15.43
2023-01-19T05:16:11.241Z,17.48
2023-01-19T05:18:38.493Z,15.55
2023-01-19T05:21:06.330Z,13.43
2023-01-19T05:46:07.264Z,16.08
2023-01-19T05:48:34.484Z,11.38
2023-01-19T05:51:02.019Z,14.43
2023-01-19T05:53:29.531Z,13.18
2023-01-19T05:56:00.049Z,17.70
2023-01-19T05:58:27.370Z,16.55
2023-01-19T06:00:54.575Z,13.50
2023-01-19T06:03:44.170Z,12.90
2023-01-19T06:06:19.136Z,11.90
2023-01-19T06:08:46.872Z,13.02
2023-01-19T06:11:14.090Z,11.80
2023-01-19T06:13:42.187Z,10.70
2023-01-19T06:16:09.931Z,11.00
2023-01-19T06:18:37.163Z,15.00
2023-01-19T07:50:36.891Z,11.48
2023-01-19T07:53:09.519Z,13.65
2023-01-19T07:55:37.118Z,13.70
2023-01-19T07:58:04.774Z,10.43
2023-01-19T08:00:32.092Z,13.43
2023-01-19T08:03:00.308Z,10.95
2023-01-19T08:09:24.934Z,17.58
2023-01-19T08:11:53.626Z,10.60
2023-01-19T08:14:20.911Z,11.88
2023-01-19T08:16:48.171Z,10.77
2023-01-19T08:19:15.463Z,13.23
2023-01-19T08:21:42.680Z,11.32
2023-01-19T08:24:29.284Z,9.60
2023-01-19T08:27:01.281Z,11.63
2023-01-19T08:29:28.969Z,18.10
2023-01-19T08:31:56.254Z,17.83
2023-01-19T08:34:44.742Z,13.88
2023-01-19T08:40:43.035Z,12.87
2023-01-19T08:43:12.587Z,13.00
2023-01-19T08:45:40.684Z,9.07
2023-01-19T08:48:08.017Z,8.87
2023-01-19T08:50:35.712Z,12.35
2023-01-19T08:53:04.085Z,9.32
2023-01-19T09:15:10.349Z,8.20
2023-01-19T09:17:37.662Z,9.15
2023-01-19T09:20:05.367Z,9.65
2023-01-19T09:22:32.565Z,9.88
2023-01-19T10:18:26.214Z,8.80
2023-01-19T10:20:55.636Z,6.37
2023-01-19T10:26:23.749Z,7.88
2023-01-19T10:28:52.343Z,4.50
2023-01-19T10:31:21.971Z,7.32
2023-01-19T10:33:51.104Z,3.67
2023-01-19T10:36:19.264Z,6.70
2023-01-19T10:42:43.983Z,5.00
2023-01-19T10:45:15.872Z,13.47
2023-01-19T10:47:43.840Z,8.20
2023-01-19T10:50:26.683Z,6.03
2023-01-19T10:52:54.728Z,5.75
2023-01-19T10:55:26.905Z,6.27
2023-01-19T11:14:51.314Z,8.88
2023-01-19T11:17:20.489Z,4.63
2023-01-19T11:19:53.533Z,6.47
2023-01-19T11:22:21.444Z,4.32
2023-01-19T11:24:49.317Z,3.83
2023-01-19T11:47:02.191Z,5.65
2023-01-19T11:49:32.618Z,9.15
2023-01-19T11:52:02.915Z,6.27
2023-01-19T11:54:32.278Z,7.22
2023-01-19T12:16:39.352Z,6.00
2023-01-19T12:19:08.167Z,5.25
2023-01-19T12:21:35.460Z,7.75
2023-01-19T12:24:06.329Z,4.82
2023-01-19T13:14:33.032Z,6.53
2023-01-19T13:17:17.726Z,4.93
2023-01-19T13:19:48.055Z,7.45
2023-01-19T13:22:33.835Z,5.90
2023-01-19T13:45:30.222Z,4.50
2023-01-19T13:47:59.064Z,4.65
2023-01-19T13:50:27.409Z,4.20
2023-01-19T13:52:54.767Z,2.57
2023-01-19T13:55:22.700Z,5.47
2023-01-19T13:57:51.171Z,5.15
2023-01-19T14:00:20.086Z,3.60
2023-01-19T14:02:59.842Z,6.78
2023-01-19T14:05:34.890Z,3.88
2023-01-19T14:08:13.250Z,5.70
2023-01-19T14:10:46.917Z,5.43
2023-01-19T14:13:15.268Z,4.97
2023-01-19T14:15:42.826Z,6.60
2023-01-19T14:18:13.051Z,5.93
2023-01-19T14:20:40.733Z,4.03
2023-01-19T14:23:28.007Z,2.72
2023-01-19T15:00:31.361Z,6.73
2023-01-19T15:03:00.583Z,5.90
2023-01-19T15:05:27.797Z,4.03
2023-01-19T15:07:55.027Z,5.50
2023-01-19T15:13:52.223Z,4.65
2023-01-19T15:16:19.711Z,7.77
2023-01-19T15:18:48.300Z,7.10
2023-01-19T15:21:16.001Z,7.82
2023-01-19T15:23:43.266Z,6.88
2023-01-19T15:26:13.385Z,4.63
2023-01-19T16:16:58.752Z,4.77
2023-01-19T16:19:26.456Z,5.07
2023-01-19T16:21:53.727Z,6.82
2023-01-19T16:24:21.290Z,4.15
2023-01-19T16:26:48.593Z,1.80
2023-01-19T16:29:25.405Z,2.33
2023-01-19T16:32:17.866Z,1.60
2023-01-19T16:34:55.947Z,3.17
2023-01-19T16:37:23.670Z,4.90
2023-01-19T16:39:51.148Z,3.13
2023-01-19T16:42:18.414Z,2.50
2023-01-19T16:44:45.687Z,2.53
2023-01-19T16:47:12.977Z,3.55
2023-01-19T16:49:40.507Z,3.67
2023-01-19T16:52:09.102Z,2.08
2023-01-19T16:54:38.518Z,2.58
2023-01-19T16:57:06.585Z,8.20
2023-01-19T16:59:33.815Z,1.90
2023-01-19T17:02:01.172Z,2.15
2023-01-19T17:04:28.700Z,2.22
2023-01-19T17:06:56.234Z,3.65
2023-01-19T17:09:24.884Z,3.80
2023-01-19T17:11:52.207Z,2.75
2023-01-19T17:14:20.185Z,3.25
2023-01-19T17:16:47.857Z,3.42
2023-01-19T17:56:41.010Z,3.05
2023-01-19T17:59:08.431Z,3.72
2023-01-19T18:01:36.462Z,2.72
2023-01-19T18:04:03.771Z,3.50
2023-01-19T18:06:31.008Z,4.35
2023-01-19T18:09:00.448Z,4.67
2023-01-19T18:11:34.285Z,4.43
2023-01-19T18:14:12.183Z,3.97
2023-01-19T18:16:39.409Z,3.23
2023-01-19T18:19:07.231Z,6.90
2023-01-19T18:21:37.601Z,6.72
2023-01-19T18:24:05.644Z,6.75
2023-01-19T18:26:33.479Z,6.00
2023-01-19T18:29:19.405Z,6.63
2023-01-19T18:31:48.012Z,5.50
2023-01-19T18:34:15.304Z,4.00
2023-01-19T18:36:42.639Z,4.93
2023-01-19T18:39:30.553Z,4.35
2023-01-19T18:42:20.566Z,7.95
2023-01-19T18:44:47.783Z,6.88
2023-01-19T18:47:16.747Z,9.15
2023-01-19T18:49:44.019Z,6.05
2023-01-19T18:52:11.286Z,8.40
2023-01-19T18:54:38.556Z,7.43
2023-01-19T19:00:25.367Z,3.58
2023-01-19T19:02:54.014Z,4.80
2023-01-19T19:05:22.651Z,4.53
2023-01-19T19:11:24.425Z,4.85
2023-01-19T19:13:52.294Z,22.38
2023-01-19T19:16:22.696Z,27.23
2023-01-19T19:18:54.149Z,8.20
2023-01-19T19:21:22.551Z,8.00
2023-01-19T19:23:53.711Z,6.75
2023-01-19T21:33:26.884Z,5.95
2023-01-19T22:47:23.686Z,6.53
2023-01-19T22:49:50.929Z,7.15
2023-01-19T22:52:18.207Z,6.93
